METAR Data

Data at: 1100 UTC 21 Apr 2021

METAR for:KIZG (Fryeburg/Eastern Slo, ME, US)
Text:KIZG 211054Z AUTO 00000KT 10SM FEW055 06/04 A2985 RMK AO2 SLP109 T00560039
Temperature: 5.6°C ( 42°F)
Dewpoint: 3.9°C ( 39°F) [RH = 89%]
Pressure (altimeter):29.85 inches Hg (1010.9 mb) [Sea level pressure: 1010.9 mb]
Winds:calm
Visibility:10 or more sm (16+ km)
Ceiling:at least 12,000 feet AGL
Clouds: few clouds at 5500 feet AGL
QC Flag:automated observation with no human augmentation